createdAt,value
2018-02-11T00:00:18.783Z,100416.83
2018-02-11T00:01:23.094Z,100410.51
2018-02-11T00:02:27.404Z,100408.39
2018-02-11T00:03:31.670Z,100405.03
2018-02-11T00:04:35.874Z,100403.77
2018-02-11T00:05:40.047Z,100408.42
2018-02-11T00:06:44.248Z,100405.86
2018-02-11T00:07:48.423Z,100405.88
2018-02-11T00:08:53.485Z,100398.30
2018-02-11T00:09:57.769Z,100402.09
2018-02-11T00:11:02.772Z,100389.02
2018-02-11T00:12:06.976Z,100386.50
2018-02-11T00:13:11.186Z,100390.70
2018-02-11T00:14:15.445Z,100391.13
2018-02-11T00:15:19.639Z,100383.95
2018-02-11T00:16:24.914Z,100379.76
2018-02-11T00:17:29.126Z,100369.64
2018-02-11T00:18:33.322Z,100369.62
2018-02-11T00:19:37.576Z,100370.48
2018-02-11T00:20:41.757Z,100364.98
2018-02-11T00:21:45.932Z,100368.78
2018-02-11T00:22:50.887Z,100361.20
2018-02-11T00:23:55.062Z,100358.67
2018-02-11T00:25:00.455Z,100348.99
2018-02-11T00:26:04.654Z,100346.03
2018-02-11T00:27:08.847Z,100343.91
2018-02-11T00:28:13.053Z,100330.86
2018-02-11T00:29:18.300Z,100341.38
2018-02-11T00:30:22.522Z,100334.66
2018-02-11T00:31:26.718Z,100333.39
2018-02-11T00:32:30.906Z,100333.38
2018-02-11T00:33:35.848Z,100329.59
2018-02-11T00:34:40.039Z,100323.25
2018-02-11T00:35:45.057Z,100326.65
2018-02-11T00:36:54.046Z,100317.80
2018-02-11T00:38:03.735Z,100313.14
2018-02-11T00:39:07.930Z,100297.14
2018-02-11T00:40:12.137Z,100300.09
2018-02-11T00:41:16.329Z,100291.66
2018-02-11T00:42:20.526Z,100289.96
2018-02-11T00:43:24.755Z,100295.44
2018-02-11T00:44:28.998Z,100285.31
2018-02-11T00:45:33.961Z,100284.08
2018-02-11T00:46:38.145Z,100292.50
2018-02-11T00:47:43.118Z,100290.41
2018-02-11T00:48:47.346Z,100289.55
2018-02-11T00:49:51.648Z,100276.47
2018-02-11T00:50:56.630Z,100278.58
2018-02-11T00:52:00.843Z,100275.22
2018-02-11T00:53:05.021Z,100272.66
2018-02-11T00:54:09.214Z,100263.84
2018-02-11T00:55:13.525Z,100274.79
2018-02-11T00:56:18.266Z,100264.64
2018-02-11T00:57:22.532Z,100268.88
2018-02-11T00:58:26.726Z,100262.98
2018-02-11T00:59:30.961Z,100253.69
2018-02-11T01:00:35.209Z,100254.96
2018-02-11T01:01:39.444Z,100243.98
2018-02-11T01:02:44.680Z,100249.88
2018-02-11T01:03:49.179Z,100243.14
2018-02-11T01:04:54.282Z,100239.34
2018-02-11T01:05:58.463Z,100241.88
2018-02-11T01:07:02.684Z,100237.66
2018-02-11T01:08:06.865Z,100229.23
2018-02-11T01:09:11.056Z,100231.33
2018-02-11T01:10:15.319Z,100231.33
2018-02-11T01:11:19.924Z,100219.52
2018-02-11T01:12:24.206Z,100222.88
2018-02-11T01:13:29.175Z,100219.55
2018-02-11T01:14:33.386Z,100214.02
2018-02-11T01:15:37.565Z,100214.02
2018-02-11T01:16:42.637Z,100209.83
2018-02-11T01:17:47.393Z,100208.56
2018-02-11T01:18:52.399Z,100176.97
2018-02-11T01:19:56.602Z,100197.21
2018-02-11T01:21:00.781Z,100193.84
2018-02-11T01:22:04.961Z,100198.50
2018-02-11T01:23:10.355Z,100184.16
2018-02-11T01:24:14.569Z,100189.22
2018-02-11T01:25:19.550Z,100192.17
2018-02-11T01:26:23.718Z,100176.59
2018-02-11T01:27:27.920Z,100182.48
2018-02-11T01:28:32.903Z,100181.65
2018-02-11T01:29:37.131Z,100174.09
2018-02-11T01:30:42.814Z,100169.88
2018-02-11T01:31:47.009Z,100173.66
2018-02-11T01:32:51.989Z,100175.78
2018-02-11T01:33:56.341Z,100164.41
2018-02-11T01:35:00.636Z,100156.81
2018-02-11T01:36:06.350Z,100158.51
2018-02-11T01:37:10.538Z,100155.14
2018-02-11T01:38:14.715Z,100148.42
2018-02-11T01:39:19.256Z,100155.59
2018-02-11T01:40:24.348Z,100153.91
2018-02-11T01:41:28.534Z,100148.45
2018-02-11T01:42:32.775Z,100150.13
2018-02-11T01:43:36.978Z,100143.41
2018-02-11T01:44:41.203Z,100133.72
2018-02-11T01:45:45.430Z,100130.77
2018-02-11T01:46:50.379Z,100128.23
2018-02-11T01:47:55.101Z,100123.61
2018-02-11T01:48:59.443Z,100120.24
2018-02-11T01:50:15.907Z,100122.77
2018-02-11T01:51:20.121Z,100120.27
2018-02-11T01:52:24.344Z,100110.12
2018-02-11T01:53:28.909Z,100106.38
2018-02-11T01:54:33.293Z,100111.41
2018-02-11T01:55:37.538Z,100105.09
2018-02-11T01:56:41.739Z,100101.31
2018-02-11T01:57:45.911Z,100095.39
2018-02-11T01:58:50.092Z,100093.30
2018-02-11T01:59:54.615Z,100081.52
2018-02-11T02:00:59.354Z,100068.89
2018-02-11T02:02:03.690Z,100079.83
2018-02-11T02:03:07.928Z,100074.34
2018-02-11T02:04:12.749Z,100069.73
2018-02-11T02:05:16.951Z,100060.45
2018-02-11T02:06:21.168Z,100062.59
2018-02-11T02:07:26.038Z,100060.46
2018-02-11T02:08:31.195Z,100052.45
2018-02-11T02:09:35.439Z,100049.10
2018-02-11T02:10:39.638Z,100049.53
2018-02-11T02:11:43.826Z,100041.52
2018-02-11T02:12:48.062Z,100058.34
2018-02-11T02:13:52.267Z,100042.75
2018-02-11T02:14:57.403Z,100046.14
2018-02-11T02:16:02.568Z,100041.09
2018-02-11T02:17:07.549Z,100036.86
2018-02-11T02:18:11.787Z,100032.65
2018-02-11T02:19:16.006Z,100034.75
2018-02-11T02:20:20.262Z,100027.59
2018-02-11T02:21:25.299Z,100025.08
2018-02-11T02:22:29.567Z,100023.77
2018-02-11T02:23:34.965Z,100015.80
2018-02-11T02:24:39.162Z,100003.16
2018-02-11T02:25:43.344Z,100006.92
2018-02-11T02:26:48.320Z,100000.64
2018-02-11T02:27:52.519Z,99998.11
2018-02-11T02:28:57.448Z,100004.03
2018-02-11T02:30:02.039Z,100003.59
2018-02-11T02:31:06.292Z,99993.05
2018-02-11T02:32:10.472Z,100002.33
2018-02-11T02:33:14.661Z,99991.36
2018-02-11T02:34:19.626Z,99991.36
2018-02-11T02:35:24.740Z,99997.68
2018-02-11T02:36:29.079Z,99988.00
2018-02-11T02:37:33.305Z,99990.96
2018-02-11T02:38:37.901Z,99993.89
2018-02-11T02:39:42.099Z,99968.19
2018-02-11T02:40:46.296Z,99984.21
2018-02-11T02:41:51.259Z,99985.05
2018-02-11T02:42:55.783Z,99991.36
2018-02-11T02:44:01.201Z,99985.48
2018-02-11T02:45:05.397Z,99971.14
2018-02-11T02:46:09.575Z,99957.64
2018-02-11T02:47:13.766Z,99955.98
2018-02-11T02:48:17.963Z,99964.39
2018-02-11T02:49:22.280Z,99948.80
2018-02-11T02:50:26.875Z,99947.10
2018-02-11T02:51:31.438Z,99948.36
2018-02-11T02:52:35.677Z,99946.27
2018-02-11T02:53:40.643Z,99939.95
2018-02-11T02:54:44.918Z,99945.44
2018-02-11T02:55:49.855Z,99939.08
2018-02-11T02:56:54.984Z,99934.45
2018-02-11T02:57:59.626Z,99928.97
2018-02-11T02:59:03.952Z,99926.01
2018-02-11T03:00:08.212Z,99914.23
2018-02-11T03:01:12.391Z,99912.09
2018-02-11T03:02:16.559Z,99910.40
2018-02-11T03:03:20.774Z,99900.30
2018-02-11T03:04:25.870Z,99893.16
2018-02-11T03:05:30.885Z,99890.62
2018-02-11T03:06:35.125Z,99893.15
2018-02-11T03:07:40.068Z,99888.95
2018-02-11T03:08:44.264Z,99882.22
2018-02-11T03:09:49.221Z,99877.59
2018-02-11T03:10:53.466Z,99868.27
2018-02-11T03:11:57.900Z,99872.09
2018-02-11T03:13:03.065Z,99867.05
2018-02-11T03:14:07.599Z,99866.17
2018-02-11T03:15:11.786Z,99851.01
2018-02-11T03:16:16.756Z,99853.97
2018-02-11T03:17:20.932Z,99853.54
2018-02-11T03:18:25.219Z,99851.88
2018-02-11T03:19:30.285Z,99850.56
2018-02-11T03:20:34.529Z,99847.59
2018-02-11T03:21:39.829Z,99847.15
2018-02-11T03:22:44.028Z,99843.79
2018-02-11T03:23:48.963Z,99841.70
2018-02-11T03:24:53.598Z,99842.52
2018-02-11T03:25:58.360Z,99825.22
2018-02-11T03:27:02.978Z,99827.30
2018-02-11T03:28:07.206Z,99819.70
2018-02-11T03:29:11.399Z,99828.55
2018-02-11T03:30:15.598Z,99820.54
2018-02-11T03:31:19.798Z,99809.59
2018-02-11T03:32:24.463Z,99802.45
2018-02-11T03:33:28.962Z,99813.38
2018-02-11T03:34:34.019Z,99817.56
2018-02-11T03:35:38.976Z,99801.56
2018-02-11T03:36:43.162Z,99796.50
2018-02-11T03:37:48.518Z,99804.52
2018-02-11T03:38:52.700Z,99797.38
2018-02-11T03:39:57.768Z,99801.17
2018-02-11T03:41:01.995Z,99806.62
2018-02-11T03:42:06.185Z,99796.97
2018-02-11T03:43:10.786Z,99784.75
2018-02-11T03:44:15.736Z,99787.67
2018-02-11T03:45:19.912Z,99777.56
2018-02-11T03:46:25.593Z,99773.77
2018-02-11T03:47:29.898Z,99764.10
2018-02-11T03:48:34.625Z,99767.06
2018-02-11T03:49:38.840Z,99759.03
2018-02-11T03:50:43.030Z,99765.73
2018-02-11T03:51:47.967Z,99770.83
2018-02-11T03:52:52.171Z,99760.75
2018-02-11T03:53:57.931Z,99756.94
2018-02-11T03:55:02.195Z,99750.20
2018-02-11T03:56:06.484Z,99755.67
2018-02-11T03:57:10.692Z,99760.30
2018-02-11T03:58:14.878Z,99751.02
2018-02-11T03:59:19.118Z,99743.42
2018-02-11T04:00:23.493Z,99746.00
2018-02-11T04:01:28.646Z,99742.16
2018-02-11T04:02:33.286Z,99735.39
2018-02-11T04:03:37.507Z,99735.83
2018-02-11T04:04:41.736Z,99735.39
2018-02-11T04:05:45.948Z,99735.81
2018-02-11T04:06:50.156Z,99733.28
2018-02-11T04:07:54.394Z,99735.38
2018-02-11T04:08:58.774Z,99727.80
2018-02-11T04:10:03.040Z,99717.67
2018-02-11T04:11:07.261Z,99707.99
2018-02-11T04:12:11.475Z,99710.97
2018-02-11T04:13:15.685Z,99706.72
2018-02-11T04:14:19.886Z,99707.18
2018-02-11T04:15:24.294Z,99713.06
2018-02-11T04:16:29.397Z,99706.74
2018-02-11T04:17:33.640Z,99718.95
2018-02-11T04:18:37.946Z,99709.64
2018-02-11T04:19:42.126Z,99700.80
2018-02-11T04:20:46.336Z,99699.97
2018-02-11T04:21:51.289Z,99686.08
2018-02-11T04:22:56.454Z,99678.48
2018-02-11T04:24:00.909Z,99669.63
2018-02-11T04:25:05.181Z,99668.80
2018-02-11T04:26:09.363Z,99678.03
2018-02-11T04:27:13.531Z,99668.75
2018-02-11T04:28:17.727Z,99659.07
2018-02-11T04:29:21.996Z,99661.61
2018-02-11T04:30:26.491Z,99662.48
2018-02-11T04:31:30.989Z,99655.72
2018-02-11T04:32:35.244Z,99659.91
2018-02-11T04:33:39.658Z,99663.23
2018-02-11T04:34:43.975Z,99662.84
2018-02-11T04:35:48.181Z,99663.23
2018-02-11T04:36:52.847Z,99667.06
2018-02-11T04:37:58.108Z,99662.84
2018-02-11T04:39:03.141Z,99661.12
2018-02-11T04:40:07.341Z,99652.30
2018-02-11T04:41:11.548Z,99657.37
2018-02-11T04:42:16.169Z,99655.25
2018-02-11T04:43:20.346Z,99655.25
2018-02-11T04:44:25.615Z,99654.00
2018-02-11T04:45:30.601Z,99645.98
2018-02-11T04:46:34.926Z,99644.78
2018-02-11T04:47:39.512Z,99638.84
2018-02-11T04:48:43.702Z,99634.66
2018-02-11T04:49:48.664Z,99631.70
2018-02-11T04:50:53.170Z,99632.09
2018-02-11T04:51:57.633Z,99632.52
2018-02-11T04:53:01.937Z,99634.20
2018-02-11T04:54:06.170Z,99621.55
2018-02-11T04:55:10.346Z,99615.65
2018-02-11T04:56:14.537Z,99616.50
2018-02-11T04:57:18.707Z,99620.30
2018-02-11T04:58:23.096Z,99608.95
2018-02-11T04:59:27.756Z,99606.04
2018-02-11T05:00:32.741Z,99600.11
2018-02-11T05:01:37.046Z,99607.33
2018-02-11T05:02:41.248Z,99599.75
2018-02-11T05:03:45.442Z,99586.63
2018-02-11T05:04:49.655Z,99582.41
2018-02-11T05:05:53.912Z,99587.45
2018-02-11T05:06:58.288Z,99587.44
2018-02-11T05:08:02.474Z,99584.50
2018-02-11T05:09:06.754Z,99577.31
2018-02-11T05:10:10.938Z,99573.46
2018-02-11T05:11:15.134Z,99580.22
2018-02-11T05:12:19.344Z,99574.73
2018-02-11T05:13:23.650Z,99570.48
2018-02-11T05:14:28.487Z,99581.94
2018-02-11T05:15:32.741Z,99584.44
2018-02-11T05:16:36.999Z,99568.00
2018-02-11T05:17:41.209Z,99562.51
2018-02-11T05:18:45.398Z,99563.34
2018-02-11T05:19:50.397Z,99563.34
2018-02-11T05:20:55.294Z,99545.64
2018-02-11T05:21:59.720Z,99565.41
2018-02-11T05:23:04.027Z,99542.64
2018-02-11T05:24:08.216Z,99555.63
2018-02-11T05:25:12.451Z,99548.92
2018-02-11T05:26:17.578Z,99545.94
2018-02-11T05:27:21.757Z,99560.28
2018-02-11T05:28:26.309Z,99548.45
2018-02-11T05:29:30.539Z,99540.05
2018-02-11T05:30:35.338Z,99537.52
2018-02-11T05:31:39.521Z,99534.56
2018-02-11T05:32:43.716Z,99533.27
2018-02-11T05:33:48.657Z,99527.77
2018-02-11T05:34:57.796Z,99523.08
2018-02-11T05:36:02.561Z,99522.70
2018-02-11T05:37:07.537Z,99521.83
2018-02-11T05:38:11.745Z,99511.36
2018-02-11T05:39:15.942Z,99515.95
2018-02-11T05:40:20.907Z,99508.77
2018-02-11T05:41:25.330Z,99508.70
2018-02-11T05:42:29.654Z,99507.08
2018-02-11T05:43:33.900Z,99500.30
2018-02-11T05:44:38.657Z,99504.52
2018-02-11T05:45:42.851Z,99514.21
2018-02-11T05:46:47.796Z,99496.97
2018-02-11T05:47:51.988Z,99506.23
2018-02-11T05:48:57.726Z,99497.77
2018-02-11T05:50:02.968Z,99488.91
2018-02-11T05:51:07.931Z,99505.70
2018-02-11T05:52:12.108Z,99485.92
2018-02-11T05:53:17.071Z,99504.05
2018-02-11T05:54:21.266Z,99497.67
2018-02-11T05:55:26.829Z,99499.36
2018-02-11T05:56:31.890Z,99498.08
2018-02-11T05:57:36.214Z,99491.28
2018-02-11T05:58:40.403Z,99493.40
2018-02-11T05:59:44.614Z,99493.81
2018-02-11T06:00:48.845Z,99506.46
2018-02-11T06:01:53.046Z,99493.38
2018-02-11T06:02:58.584Z,99491.30
2018-02-11T06:04:03.706Z,99491.72
2018-02-11T06:05:07.907Z,99484.12
2018-02-11T06:06:12.132Z,99482.79
2018-02-11T06:07:16.318Z,99484.91
2018-02-11T06:08:20.488Z,99489.09
2018-02-11T06:09:25.761Z,99480.66
2018-02-11T06:10:30.045Z,99491.98
2018-02-11T06:11:34.645Z,99485.25
2018-02-11T06:12:39.631Z,99479.80
2018-02-11T06:13:43.821Z,99488.24
2018-02-11T06:14:48.001Z,99490.80
2018-02-11T06:15:53.256Z,99488.64
2018-02-11T06:16:58.046Z,99493.36
2018-02-11T06:18:02.411Z,99486.58
2018-02-11T06:19:06.949Z,99489.52
2018-02-11T06:20:11.118Z,99483.19
2018-02-11T06:21:15.343Z,99488.19
2018-02-11T06:22:19.539Z,99485.30
2018-02-11T06:23:23.961Z,99459.15
2018-02-11T06:24:29.164Z,99481.94
2018-02-11T06:25:33.594Z,99476.80
2018-02-11T06:26:45.333Z,99479.77
2018-02-11T06:27:49.554Z,99477.67
2018-02-11T06:28:53.836Z,99458.69
2018-02-11T06:29:59.338Z,99489.41
2018-02-11T06:31:03.693Z,99477.64
2018-02-11T06:32:07.895Z,99473.38
2018-02-11T06:33:12.161Z,99484.33
2018-02-11T06:34:16.364Z,99480.13
2018-02-11T06:35:20.573Z,99475.95
2018-02-11T06:36:24.863Z,99485.23
2018-02-11T06:37:29.226Z,99488.98
2018-02-11T06:38:33.487Z,99490.22
2018-02-11T06:39:37.683Z,99492.36
2018-02-11T06:40:41.882Z,99491.50
2018-02-11T06:41:46.088Z,99489.41
2018-02-11T06:42:50.292Z,99496.56
2018-02-11T06:43:56.079Z,99489.84
2018-02-11T06:45:00.646Z,99488.51
2018-02-11T06:46:05.465Z,99496.09
2018-02-11T06:47:10.418Z,99492.75
2018-02-11T06:48:15.373Z,99497.81
2018-02-11T06:49:19.576Z,99487.23
2018-02-11T06:50:23.884Z,99507.45
2018-02-11T06:51:28.801Z,99504.46
2018-02-11T06:52:33.215Z,99496.88
2018-02-11T06:53:37.418Z,99495.20
2018-02-11T06:54:41.642Z,99498.55
2018-02-11T06:55:45.860Z,99496.02
2018-02-11T06:56:50.057Z,99491.36
2018-02-11T06:57:54.277Z,99486.69
2018-02-11T06:58:58.801Z,99498.46
2018-02-11T07:00:03.006Z,99499.72
2018-02-11T07:01:07.214Z,99497.98
2018-02-11T07:02:11.426Z,99508.97
2018-02-11T07:03:15.637Z,99495.43
2018-02-11T07:04:19.828Z,99503.91
2018-02-11T07:05:24.033Z,99500.52
2018-02-11T07:06:29.352Z,99500.93
2018-02-11T07:07:33.908Z,99507.23
2018-02-11T07:08:38.124Z,99500.84
2018-02-11T07:09:42.380Z,99502.56
2018-02-11T07:10:46.605Z,99500.02
2018-02-11T07:11:50.855Z,99498.74
2018-02-11T07:12:55.779Z,99507.95
2018-02-11T07:14:00.183Z,99499.94
2018-02-11T07:15:04.496Z,99505.42
2018-02-11T07:16:09.452Z,99505.02
2018-02-11T07:17:13.708Z,99500.33
2018-02-11T07:18:17.919Z,99503.28
2018-02-11T07:19:23.192Z,99506.21
2018-02-11T07:20:27.830Z,99488.47
2018-02-11T07:21:32.866Z,99499.39
2018-02-11T07:22:37.138Z,99492.21
2018-02-11T07:23:42.124Z,99512.08
2018-02-11T07:24:46.338Z,99507.39
2018-02-11T07:25:50.511Z,99507.39
2018-02-11T07:26:55.532Z,99498.11
2018-02-11T07:27:59.805Z,99501.05
2018-02-11T07:29:04.827Z,99507.33
2018-02-11T07:30:09.386Z,99506.92
2018-02-11T07:31:13.637Z,99506.91
2018-02-11T07:32:17.788Z,99504.38
2018-02-11T07:33:22.245Z,99509.81
2018-02-11T07:34:27.736Z,99511.90
2018-02-11T07:35:32.757Z,99516.97
2018-02-11T07:36:37.292Z,99515.27
2018-02-11T07:37:42.268Z,99516.12
2018-02-11T07:38:46.477Z,99518.19
2018-02-11T07:39:50.694Z,99521.13
2018-02-11T07:40:56.313Z,99517.28
2018-02-11T07:42:00.552Z,99521.53
2018-02-11T07:43:04.805Z,99513.08
2018-02-11T07:44:09.038Z,99514.70
2018-02-11T07:45:14.026Z,99519.33
2018-02-11T07:46:18.237Z,99515.97
2018-02-11T07:47:22.459Z,99511.31
2018-02-11T07:48:26.881Z,99523.09
2018-02-11T07:49:32.487Z,99519.26
2018-02-11T07:50:36.679Z,99523.06
2018-02-11T07:51:40.902Z,99519.63
2018-02-11T07:52:45.076Z,99510.34
2018-02-11T07:53:50.090Z,99513.23
2018-02-11T07:54:54.407Z,99513.20
2018-02-11T07:55:59.401Z,99505.14
2018-02-11T07:57:03.608Z,99514.77
2018-02-11T07:58:07.814Z,99514.30
2018-02-11T07:59:11.998Z,99513.86
2018-02-11T08:00:16.191Z,99511.69
2018-02-11T08:01:21.165Z,99510.39
2018-02-11T08:02:25.481Z,99514.97
2018-02-11T08:03:29.707Z,99514.58
2018-02-11T08:04:33.902Z,99509.05
2018-02-11T08:05:38.505Z,99509.86
2018-02-11T08:06:42.682Z,99503.88
2018-02-11T08:07:47.617Z,99514.81
2018-02-11T08:08:51.816Z,99514.33
2018-02-11T08:09:58.687Z,99512.23
2018-02-11T08:11:03.560Z,99510.12
2018-02-11T08:12:08.071Z,99511.73
2018-02-11T08:13:12.255Z,99514.61
2018-02-11T08:14:16.411Z,99509.08
2018-02-11T08:15:20.628Z,99509.91
2018-02-11T08:16:25.913Z,99509.94
2018-02-11T08:17:30.285Z,99512.83
2018-02-11T08:18:34.652Z,99503.47
2018-02-11T08:19:39.495Z,99516.94
2018-02-11T08:20:43.719Z,99513.58
2018-02-11T08:21:47.879Z,99514.79
2018-02-11T08:22:52.069Z,99508.02
2018-02-11T08:23:56.647Z,99509.62
2018-02-11T08:25:01.058Z,99507.48
2018-02-11T08:26:05.335Z,99503.61
2018-02-11T08:27:09.578Z,99505.73
2018-02-11T08:28:13.748Z,99512.90
2018-02-11T08:29:17.921Z,99519.59
2018-02-11T08:30:22.162Z,99516.64
2018-02-11T08:31:26.747Z,99521.64
2018-02-11T08:32:31.420Z,99523.38
2018-02-11T08:33:36.463Z,99518.68
2018-02-11T08:34:41.488Z,99508.47
2018-02-11T08:35:46.436Z,99502.91
2018-02-11T08:36:50.611Z,99509.19
2018-02-11T08:37:56.295Z,99502.77
2018-02-11T08:39:00.774Z,99512.42
2018-02-11T08:40:04.987Z,99512.42
2018-02-11T08:41:09.168Z,99514.91
2018-02-11T08:42:13.412Z,99513.69
2018-02-11T08:43:18.385Z,99517.45
2018-02-11T08:44:22.592Z,99509.00
2018-02-11T08:45:26.850Z,99518.30
2018-02-11T08:46:31.156Z,99519.94
2018-02-11T08:47:35.360Z,99514.46
2018-02-11T08:48:39.524Z,99507.23
2018-02-11T08:49:44.498Z,99518.63
2018-02-11T08:50:48.735Z,99523.27
2018-02-11T08:51:53.734Z,99516.53
2018-02-11T08:52:58.772Z,99515.23
2018-02-11T08:54:03.061Z,99517.72
2018-02-11T08:55:07.228Z,99522.30
2018-02-11T08:56:12.175Z,99515.13
2018-02-11T08:57:16.357Z,99518.48
2018-02-11T08:58:21.526Z,99522.27
2018-02-11T08:59:25.782Z,99517.14
2018-02-11T09:00:29.990Z,99517.58
2018-02-11T09:01:34.181Z,99531.07
2018-02-11T09:02:38.379Z,99525.50
2018-02-11T09:03:42.605Z,99514.88
2018-02-11T09:04:46.771Z,99513.98
2018-02-11T09:05:51.740Z,99510.05
2018-02-11T09:06:56.097Z,99518.44
2018-02-11T09:08:01.088Z,99514.27
2018-02-11T09:09:05.801Z,99521.81
2018-02-11T09:10:09.971Z,99522.19
2018-02-11T09:11:14.944Z,99517.84
2018-02-11T09:12:19.148Z,99516.61
2018-02-11T09:13:23.333Z,99516.62
2018-02-11T09:14:28.004Z,99521.69
2018-02-11T09:15:33.171Z,99521.29
2018-02-11T09:16:37.375Z,99514.47
2018-02-11T09:17:42.355Z,99519.09
2018-02-11T09:18:46.579Z,99516.02
2018-02-11T09:19:50.810Z,99515.63
2018-02-11T09:20:55.130Z,99516.84
2018-02-11T09:22:00.750Z,99518.47
2018-02-11T09:23:04.977Z,99527.34
2018-02-11T09:24:09.186Z,99529.45
2018-02-11T09:25:14.948Z,99524.33
2018-02-11T09:26:19.913Z,99525.51
2018-02-11T09:27:24.225Z,99522.57
2018-02-11T09:28:28.628Z,99526.83
2018-02-11T09:29:32.825Z,99525.51
2018-02-11T09:30:37.792Z,99522.06
2018-02-11T09:31:42.029Z,99530.92
2018-02-11T09:32:46.204Z,99534.27
2018-02-11T09:33:50.366Z,99534.56
2018-02-11T09:34:54.655Z,99531.61
2018-02-11T09:35:58.876Z,99522.63
2018-02-11T09:37:03.896Z,99530.57
2018-02-11T09:38:08.109Z,99525.38
2018-02-11T09:39:12.278Z,99526.03
2018-02-11T09:40:16.544Z,99514.98
2018-02-11T09:41:20.754Z,99518.34
2018-02-11T09:42:25.174Z,99519.58
2018-02-11T09:43:30.205Z,99517.91
2018-02-11T09:44:34.375Z,99521.69
2018-02-11T09:45:38.569Z,99530.23
2018-02-11T09:46:43.185Z,99537.82
2018-02-11T09:47:47.365Z,99533.55
2018-02-11T09:48:53.143Z,99536.91
2018-02-11T09:49:57.630Z,99533.45
2018-02-11T09:51:01.862Z,99532.17
2018-02-11T09:52:06.872Z,99527.45
2018-02-11T09:53:11.042Z,99528.64
2018-02-11T09:54:15.231Z,99533.36
2018-02-11T09:55:19.400Z,99536.33
2018-02-11T09:56:24.040Z,99536.67
2018-02-11T09:57:28.499Z,99539.98
2018-02-11T09:58:32.756Z,99548.06
2018-02-11T09:59:37.724Z,99553.13
2018-02-11T10:00:42.923Z,99566.32
2018-02-11T10:01:47.996Z,99554.74
2018-02-11T10:02:52.208Z,99553.16
2018-02-11T10:03:56.841Z,99554.38
2018-02-11T10:05:01.184Z,99560.73
2018-02-11T10:06:05.391Z,99555.91
2018-02-11T10:07:09.567Z,99556.59
2018-02-11T10:08:13.908Z,99560.88
2018-02-11T10:09:18.100Z,99563.52
2018-02-11T10:10:22.277Z,99566.59
2018-02-11T10:11:26.482Z,99555.98
2018-02-11T10:12:30.921Z,99557.11
2018-02-11T10:13:35.149Z,99560.73
2018-02-11T10:14:39.368Z,99556.67
2018-02-11T10:15:43.577Z,99555.91
2018-02-11T10:16:47.770Z,99563.14
2018-02-11T10:17:51.944Z,99558.38
2018-02-11T10:18:56.927Z,99551.75
2018-02-11T10:20:01.203Z,99554.90
2018-02-11T10:21:05.380Z,99543.95
2018-02-11T10:22:10.357Z,99548.30
2018-02-11T10:23:14.540Z,99551.30
2018-02-11T10:24:18.722Z,99564.09
2018-02-11T10:25:23.578Z,99555.57
2018-02-11T10:26:27.844Z,99568.22
2018-02-11T10:27:32.096Z,99570.49
2018-02-11T10:28:36.317Z,99573.03
2018-02-11T10:29:40.496Z,99587.40
2018-02-11T10:30:45.470Z,99579.46
2018-02-11T10:31:49.665Z,99582.64
2018-02-11T10:32:54.274Z,99584.83
2018-02-11T10:33:58.515Z,99583.33
2018-02-11T10:35:02.902Z,99584.59
2018-02-11T10:36:07.115Z,99584.59
2018-02-11T10:37:11.328Z,99586.14
2018-02-11T10:38:15.547Z,99585.84
2018-02-11T10:39:19.716Z,99587.19
2018-02-11T10:40:23.963Z,99587.19
2018-02-11T10:41:28.167Z,99591.42
2018-02-11T10:42:32.381Z,99583.41
2018-02-11T10:43:37.436Z,99592.41
2018-02-11T10:44:41.591Z,99589.59
2018-02-11T10:45:46.576Z,99591.97
2018-02-11T10:46:50.749Z,99602.14
2018-02-11T10:47:55.841Z,99591.67
2018-02-11T10:49:00.089Z,99591.58
2018-02-11T10:50:05.388Z,99594.16
2018-02-11T10:51:09.601Z,99591.83
2018-02-11T10:52:13.768Z,99598.53
2018-02-11T10:53:17.929Z,99591.30
2018-02-11T10:54:22.132Z,99594.42
2018-02-11T10:55:26.407Z,99599.27
2018-02-11T10:56:30.721Z,99606.65
2018-02-11T10:57:34.956Z,99603.39
2018-02-11T10:58:39.136Z,99603.63
2018-02-11T10:59:43.310Z,99608.70
2018-02-11T11:00:48.257Z,99609.17
2018-02-11T11:01:53.283Z,99615.09
2018-02-11T11:02:57.595Z,99607.92
2018-02-11T11:04:03.374Z,99606.81
2018-02-11T11:05:07.563Z,99598.48
2018-02-11T11:06:11.755Z,99604.42
2018-02-11T11:07:16.780Z,99596.75
2018-02-11T11:08:21.727Z,99604.08
2018-02-11T11:09:26.540Z,99605.14
2018-02-11T11:10:31.581Z,99606.63
2018-02-11T11:11:35.972Z,99603.39
2018-02-11T11:12:40.929Z,99601.30
2018-02-11T11:13:46.218Z,99600.00
2018-02-11T11:14:50.383Z,99609.39
2018-02-11T11:15:54.825Z,99606.67
2018-02-11T11:16:59.303Z,99605.84
2018-02-11T11:18:03.604Z,99607.77
2018-02-11T11:19:08.597Z,99609.72
2018-02-11T11:20:12.763Z,99602.03
2018-02-11T11:21:16.927Z,99603.31
2018-02-11T11:22:21.144Z,99597.92
2018-02-11T11:23:25.431Z,99601.89
2018-02-11T11:24:29.709Z,99594.70
2018-02-11T11:25:33.917Z,99596.78
2018-02-11T11:26:38.085Z,99605.03
2018-02-11T11:27:42.298Z,99595.08
2018-02-11T11:28:46.487Z,99593.38
2018-02-11T11:29:50.666Z,99599.88
2018-02-11T11:30:55.304Z,99598.80
2018-02-11T11:32:00.507Z,99602.55
2018-02-11T11:33:04.819Z,99605.20
2018-02-11T11:34:09.003Z,99604.75
2018-02-11T11:35:13.184Z,99608.76
2018-02-11T11:36:17.353Z,99613.08
2018-02-11T11:37:21.551Z,99619.13
2018-02-11T11:38:28.075Z,99613.29
2018-02-11T11:39:32.337Z,99603.66
2018-02-11T11:40:40.055Z,99618.67
2018-02-11T11:41:45.191Z,99603.55
2018-02-11T11:42:49.376Z,99600.59
2018-02-11T11:43:55.368Z,99597.19
2018-02-11T11:44:59.915Z,99603.81
2018-02-11T11:46:04.928Z,99595.78
2018-02-11T11:47:09.098Z,99600.65
2018-02-11T11:48:13.292Z,99598.97
2018-02-11T11:49:17.909Z,99598.44
2018-02-11T11:50:22.960Z,99594.50
2018-02-11T11:51:27.454Z,99604.95
2018-02-11T11:52:31.721Z,99602.73
2018-02-11T11:53:36.401Z,99587.03
2018-02-11T11:54:41.394Z,99593.73
2018-02-11T11:55:45.979Z,99592.42
2018-02-11T11:56:50.158Z,99592.33
2018-02-11T11:57:54.477Z,99591.22
2018-02-11T11:58:59.656Z,99598.41
2018-02-11T12:00:04.968Z,99604.83
2018-02-11T12:01:09.187Z,99609.72
2018-02-11T12:02:13.384Z,99603.47
2018-02-11T12:03:17.540Z,99611.85
2018-02-11T12:04:23.321Z,99604.41
2018-02-11T12:05:28.326Z,99613.13
2018-02-11T12:06:33.082Z,99613.20
2018-02-11T12:07:37.290Z,99615.39
2018-02-11T12:08:41.481Z,99618.46
2018-02-11T12:09:46.443Z,99621.61
2018-02-11T12:10:50.631Z,99629.71
2018-02-11T12:11:55.858Z,99623.48
2018-02-11T12:13:00.303Z,99611.91
2018-02-11T12:14:04.651Z,99629.17
2018-02-11T12:15:08.891Z,99611.36
2018-02-11T12:16:13.092Z,99616.47
2018-02-11T12:17:18.073Z,99611.86
2018-02-11T12:18:22.262Z,99618.30
2018-02-11T12:19:26.891Z,99625.20
2018-02-11T12:20:31.216Z,99613.58
2018-02-11T12:21:35.872Z,99627.42
2018-02-11T12:22:40.064Z,99622.43
2018-02-11T12:23:44.242Z,99630.27
2018-02-11T12:24:48.436Z,99627.80
2018-02-11T12:25:52.689Z,99626.20
2018-02-11T12:26:56.936Z,99636.70
2018-02-11T12:28:02.050Z,99633.41
2018-02-11T12:29:06.462Z,99633.91
2018-02-11T12:30:10.866Z,99636.33
2018-02-11T12:31:15.036Z,99629.38
2018-02-11T12:32:19.191Z,99633.30
2018-02-11T12:33:23.984Z,99624.23